sensor_id;sensor_type;location;lat;lon;timestamp;pressure;altitude;pressure_sealevel;temperature;humidity
56198;BME280;42700;42.524;12.052;2023-04-23T00:00:16;88655.28;;;11.95;100.00
56198;BME280;42700;42.524;12.052;2023-04-23T00:02:43;88586.69;;;11.90;100.00
56198;BME280;42700;42.524;12.052;2023-04-23T00:05:09;88700.47;;;11.92;100.00
56198;BME280;42700;42.524;12.052;2023-04-23T00:07:37;88767.97;;;11.91;100.00
56198;BME280;42700;42.524;12.052;2023-04-23T00:10:02;89149.50;;;12.01;100.00
56198;BME280;42700;42.524;12.052;2023-04-23T00:12:30;89215.16;;;12.00;100.00
56198;BME280;42700;42.524;12.052;2023-04-23T00:14:56;89371.84;;;12.00;100.00
56198;BME280;42700;42.524;12.052;2023-04-23T00:17:21;89579.38;;;11.95;100.00
56198;BME280;42700;42.524;12.052;2023-04-23T00:19:47;90330.22;;;11.91;100.00
56198;BME280;42700;42.524;12.052;2023-04-23T00:22:13;92169.94;;;11.85;100.00
56198;BME280;42700;42.524;12.052;2023-04-23T00:24:38;94485.94;;;11.84;100.00
56198;BME280;42700;42.524;12.052;2023-04-23T00:27:04;96731.00;;;11.79;100.00
56198;BME280;42700;42.524;12.052;2023-04-23T00:29:30;99213.22;;;11.81;100.00
56198;BME280;42700;42.524;12.052;2023-04-23T00:31:56;101217.47;;;11.73;100.00
56198;BME280;42700;42.524;12.052;2023-04-23T00:34:21;102974.34;;;11.69;100.00
56198;BME280;42700;42.524;12.052;2023-04-23T00:36:47;104451.09;;;11.67;100.00
56198;BME280;42700;42.524;12.052;2023-04-23T00:39:12;105654.59;;;11.58;100.00
56198;BME280;42700;42.524;12.052;2023-04-23T00:41:38;106769.41;;;11.53;100.00
56198;BME280;42700;42.524;12.052;2023-04-23T00:44:05;108000.75;;;11.48;100.00
56198;BME280;42700;42.524;12.052;2023-04-23T00:46:31;109271.75;;;11.49;100.00
56198;BME280;42700;42.524;12.052;2023-04-23T00:48:57;110502.13;;;11.48;100.00
56198;BME280;42700;42.524;12.052;2023-04-23T00:51:22;111765.97;;;11.49;100.00
56198;BME280;42700;42.524;12.052;2023-04-23T00:53:48;112813.66;;;11.47;100.00
56198;BME280;42700;42.524;12.052;2023-04-23T00:56:14;113871.22;;;11.44;100.00
56198;BME280;42700;42.524;12.052;2023-04-23T00:58:41;114924.91;;;11.44;100.00
56198;BME280;42700;42.524;12.052;2023-04-23T01:01:07;115824.34;;;11.41;100.00
56198;BME280;42700;42.524;12.052;2023-04-23T01:03:34;116429.72;;;11.31;100.00
56198;BME280;42700;42.524;12.052;2023-04-23T01:06:00;117498.72;;;11.34;100.00
56198;BME280;42700;42.524;12.052;2023-04-23T01:08:26;118196.06;;;11.30;100.00
56198;BME280;42700;42.524;12.052;2023-04-23T01:10:52;118976.31;;;11.30;100.00
56198;BME280;42700;42.524;12.052;2023-04-23T01:13:18;119671.16;;;11.30;100.00
56198;BME280;42700;42.524;12.052;2023-04-23T01:15:44;120104.00;;;11.21;100.00
56198;BME280;42700;42.524;12.052;2023-04-23T01:18:10;120928.81;;;11.27;100.00
56198;BME280;42700;42.524;12.052;2023-04-23T01:20:36;121415.25;;;11.23;100.00
56198;BME280;42700;42.524;12.052;2023-04-23T01:23:03;122027.53;;;11.23;100.00
56198;BME280;42700;42.524;12.052;2023-04-23T01:25:28;122554.56;;;11.21;100.00
56198;BME280;42700;42.524;12.052;2023-04-23T01:27:54;122648.19;;;11.05;100.00
56198;BME280;42700;42.524;12.052;2023-04-23T01:30:21;123176.72;;;11.02;100.00
56198;BME280;42700;42.524;12.052;2023-04-23T01:32:47;123712.69;;;11.00;100.00
56198;BME280;42700;42.524;12.052;2023-04-23T01:35:13;124216.63;;;10.98;100.00
56198;BME280;42700;42.524;12.052;2023-04-23T01:37:38;124693.88;;;10.96;100.00
56198;BME280;42700;42.524;12.052;2023-04-23T01:40:05;125002.72;;;10.88;100.00
56198;BME280;42700;42.524;12.052;2023-04-23T01:42:32;125304.66;;;10.79;100.00
56198;BME280;42700;42.524;12.052;2023-04-23T01:44:58;125813.34;;;10.78;100.00
56198;BME280;42700;42.524;12.052;2023-04-23T01:47:23;126240.78;;;10.79;100.00
56198;BME280;42700;42.524;12.052;2023-04-23T01:49:49;126647.91;;;10.78;100.00
56198;BME280;42700;42.524;12.052;2023-04-23T01:52:14;126986.59;;;10.75;100.00
56198;BME280;42700;42.524;12.052;2023-04-23T01:54:40;127360.63;;;10.76;100.00
56198;BME280;42700;42.524;12.052;2023-04-23T01:57:05;127679.53;;;10.75;100.00
56198;BME280;42700;42.524;12.052;2023-04-23T01:59:31;128156.47;;;10.79;100.00
56198;BME280;42700;42.524;12.052;2023-04-23T02:01:56;128509.28;;;10.83;100.00
56198;BME280;42700;42.524;12.052;2023-04-23T02:04:22;128687.44;;;10.80;100.00
56198;BME280;42700;42.524;12.052;2023-04-23T02:06:48;129125.00;;;10.85;100.00
56198;BME280;42700;42.524;12.052;2023-04-23T02:09:15;129788.56;;;11.00;100.00
56198;BME280;42700;42.524;12.052;2023-04-23T02:11:40;130198.72;;;11.08;100.00
56198;BME280;42700;42.524;12.052;2023-04-23T02:14:07;130535.13;;;11.16;100.00
56198;BME280;42700;42.524;12.052;2023-04-23T02:16:33;130980.53;;;11.26;100.00
56198;BME280;42700;42.524;12.052;2023-04-23T02:18:59;131337.66;;;11.37;100.00
56198;BME280;42700;42.524;12.052;2023-04-23T02:21:26;131563.41;;;11.44;100.00
56198;BME280;42700;42.524;12.052;2023-04-23T02:23:51;131689.63;;;11.47;100.00
56198;BME280;42700;42.524;12.052;2023-04-23T02:26:17;131595.88;;;11.41;100.00
56198;BME280;42700;42.524;12.052;2023-04-23T02:28:43;131486.03;;;11.35;100.00
56198;BME280;42700;42.524;12.052;2023-04-23T02:31:08;131390.28;;;11.30;100.00
56198;BME280;42700;42.524;12.052;2023-04-23T02:33:34;131302.00;;;11.24;100.00
56198;BME280;42700;42.524;12.052;2023-04-23T02:36:00;131217.94;;;11.17;100.00
56198;BME280;42700;42.524;12.052;2023-04-23T02:38:25;131204.78;;;11.14;100.00
56198;BME280;42700;42.524;12.052;2023-04-23T02:40:51;131104.69;;;11.07;100.00
56198;BME280;42700;42.524;12.052;2023-04-23T02:43:16;131150.72;;;11.06;100.00
56198;BME280;42700;42.524;12.052;2023-04-23T02:45:42;131149.00;;;11.04;100.00
56198;BME280;42700;42.524;12.052;2023-04-23T02:48:09;131302.94;;;11.07;100.00
56198;BME280;42700;42.524;12.052;2023-04-23T02:50:35;131254.56;;;11.04;100.00
56198;BME280;42700;42.524;12.052;2023-04-23T02:53:03;131422.16;;;11.10;100.00
56198;BME280;42700;42.524;12.052;2023-04-23T02:55:29;131255.66;;;11.05;100.00
56198;BME280;42700;42.524;12.052;2023-04-23T02:57:56;131217.81;;;11.00;100.00
56198;BME280;42700;42.524;12.052;2023-04-23T03:00:22;131069.31;;;10.90;100.00
56198;BME280;42700;42.524;12.052;2023-04-23T03:02:50;131242.84;;;10.89;100.00
56198;BME280;42700;42.524;12.052;2023-04-23T03:05:15;131362.88;;;10.90;100.00
56198;BME280;42700;42.524;12.052;2023-04-23T03:07:41;131528.22;;;10.95;100.00
56198;BME280;42700;42.524;12.052;2023-04-23T03:10:06;131688.44;;;11.02;100.00
56198;BME280;42700;42.524;12.052;2023-04-23T03:12:32;131861.63;;;11.10;100.00
56198;BME280;42700;42.524;12.052;2023-04-23T03:14:58;131901.38;;;11.11;100.00
56198;BME280;42700;42.524;12.052;2023-04-23T03:17:24;131832.78;;;11.12;100.00
56198;BME280;42700;42.524;12.052;2023-04-23T03:19:49;131904.88;;;11.15;100.00
56198;BME280;42700;42.524;12.052;2023-04-23T03:22:15;131851.78;;;11.14;100.00
56198;BME280;42700;42.524;12.052;2023-04-23T03:24:40;131780.78;;;11.11;100.00
56198;BME280;42700;42.524;12.052;2023-04-23T03:27:06;131676.72;;;11.10;100.00
56198;BME280;42700;42.524;12.052;2023-04-23T03:29:31;131555.03;;;11.10;100.00
56198;BME280;42700;42.524;12.052;2023-04-23T03:31:57;131561.47;;;11.10;100.00
56198;BME280;42700;42.524;12.052;2023-04-23T03:34:22;131740.97;;;11.16;100.00
56198;BME280;42700;42.524;12.052;2023-04-23T03:36:48;131941.44;;;11.23;100.00
56198;BME280;42700;42.524;12.052;2023-04-23T03:39:15;132112.97;;;11.30;100.00
56198;BME280;42700;42.524;12.052;2023-04-23T03:41:40;132219.50;;;11.34;100.00
56198;BME280;42700;42.524;12.052;2023-04-23T03:44:06;132186.41;;;11.36;100.00
56198;BME280;42700;42.524;12.052;2023-04-23T03:46:31;132043.66;;;11.35;100.00
56198;BME280;42700;42.524;12.052;2023-04-23T03:48:57;131956.75;;;11.34;100.00
56198;BME280;42700;42.524;12.052;2023-04-23T03:51:22;132083.84;;;11.41;100.00
56198;BME280;42700;42.524;12.052;2023-04-23T03:53:48;132244.22;;;11.48;100.00
56198;BME280;42700;42.524;12.052;2023-04-23T03:56:14;132412.25;;;11.56;100.00
56198;BME280;42700;42.524;12.052;2023-04-23T03:58:40;132630.84;;;11.66;100.00
56198;BME280;42700;42.524;12.052;2023-04-23T04:01:05;132791.63;;;11.75;100.00
56198;BME280;42700;42.524;12.052;2023-04-23T04:03:31;132746.88;;;11.79;100.00
56198;BME280;42700;42.524;12.052;2023-04-23T04:05:56;132585.44;;;11.80;100.00
56198;BME280;42700;42.524;12.052;2023-04-23T04:08:22;132292.75;;;11.78;100.00
56198;BME280;42700;42.524;12.052;2023-04-23T04:10:48;131814.44;;;11.68;100.00
56198;BME280;42700;42.524;12.052;2023-04-23T04:13:13;131574.44;;;11.64;100.00
56198;BME280;42700;42.524;12.052;2023-04-23T04:15:40;131331.78;;;11.61;100.00
56198;BME280;42700;42.524;12.052;2023-04-23T04:18:05;131012.38;;;11.56;100.00
56198;BME280;42700;42.524;12.052;2023-04-23T04:20:31;130829.94;;;11.54;100.00
56198;BME280;42700;42.524;12.052;2023-04-23T04:22:57;130738.25;;;11.55;100.00
56198;BME280;42700;42.524;12.052;2023-04-23T04:25:22;130471.03;;;11.50;100.00
56198;BME280;42700;42.524;12.052;2023-04-23T04:27:48;130292.38;;;11.48;100.00
56198;BME280;42700;42.524;12.052;2023-04-23T04:30:14;130138.97;;;11.47;100.00
56198;BME280;42700;42.524;12.052;2023-04-23T04:32:40;130028.47;;;11.45;100.00
56198;BME280;42700;42.524;12.052;2023-04-23T04:35:06;129981.44;;;11.48;100.00
56198;BME280;42700;42.524;12.052;2023-04-23T04:37:38;129837.72;;;11.46;100.00
56198;BME280;42700;42.524;12.052;2023-04-23T04:40:04;129522.28;;;11.39;100.00
56198;BME280;42700;42.524;12.052;2023-04-23T04:42:31;129420.47;;;11.39;100.00
56198;BME280;42700;42.524;12.052;2023-04-23T04:44:57;129246.69;;;11.35;100.00
56198;BME280;42700;42.524;12.052;2023-04-23T04:47:24;129175.47;;;11.36;100.00
56198;BME280;42700;42.524;12.052;2023-04-23T04:49:49;129156.72;;;11.36;100.00
56198;BME280;42700;42.524;12.052;2023-04-23T04:52:15;129121.34;;;11.37;100.00
56198;BME280;42700;42.524;12.052;2023-04-23T04:54:41;129368.25;;;11.47;100.00
56198;BME280;42700;42.524;12.052;2023-04-23T04:57:06;129468.06;;;11.51;100.00
56198;BME280;42700;42.524;12.052;2023-04-23T04:59:32;129580.81;;;11.56;100.00
56198;BME280;42700;42.524;12.052;2023-04-23T05:01:57;129671.06;;;11.61;100.00
56198;BME280;42700;42.524;12.052;2023-04-23T05:04:23;129739.88;;;11.66;100.00
56198;BME280;42700;42.524;12.052;2023-04-23T05:06:49;129889.75;;;11.72;100.00
56198;BME280;42700;42.524;12.052;2023-04-23T05:09:15;129964.53;;;11.78;100.00
56198;BME280;42700;42.524;12.052;2023-04-23T05:11:41;130074.22;;;11.84;100.00
56198;BME280;42700;42.524;12.052;2023-04-23T05:14:07;130191.50;;;11.91;100.00
56198;BME280;42700;42.524;12.052;2023-04-23T05:16:32;130338.97;;;12.00;100.00
56198;BME280;42700;42.524;12.052;2023-04-23T05:18:58;130485.94;;;12.10;100.00
56198;BME280;42700;42.524;12.052;2023-04-23T05:21:24;130697.94;;;12.21;100.00
56198;BME280;42700;42.524;12.052;2023-04-23T05:23:52;130890.28;;;12.34;100.00
56198;BME280;42700;42.524;12.052;2023-04-23T05:26:17;131005.81;;;12.46;100.00
56198;BME280;42700;42.524;12.052;2023-04-23T05:28:43;131121.41;;;12.57;100.00
56198;BME280;42700;42.524;12.052;2023-04-23T05:31:08;131327.56;;;12.73;100.00
56198;BME280;42700;42.524;12.052;2023-04-23T05:33:34;131491.91;;;12.89;100.00
56198;BME280;42700;42.524;12.052;2023-04-23T05:36:00;131627.41;;;13.07;100.00
56198;BME280;42700;42.524;12.052;2023-04-23T05:38:25;131443.63;;;13.18;100.00
56198;BME280;42700;42.524;12.052;2023-04-23T05:40:51;131526.03;;;13.38;100.00
56198;BME280;42700;42.524;12.052;2023-04-23T05:43:16;131838.72;;;13.65;100.00
56198;BME280;42700;42.524;12.052;2023-04-23T05:45:42;131778.69;;;13.88;100.00
56198;BME280;42700;42.524;12.052;2023-04-23T05:48:08;131794.47;;;14.17;100.00
56198;BME280;42700;42.524;12.052;2023-04-23T05:50:33;131381.97;;;14.38;100.00
56198;BME280;42700;42.524;12.052;2023-04-23T05:52:59;131347.69;;;14.74;100.00
56198;BME280;42700;42.524;12.052;2023-04-23T05:55:24;131180.56;;;15.08;100.00
56198;BME280;42700;42.524;12.052;2023-04-23T05:57:50;130738.13;;;15.30;100.00
56198;BME280;42700;42.524;12.052;2023-04-23T06:00:16;130244.09;;;15.50;100.00
56198;BME280;42700;42.524;12.052;2023-04-23T06:02:41;129676.44;;;15.72;100.00
56198;BME280;42700;42.524;12.052;2023-04-23T06:05:07;128662.16;;;15.77;100.00
56198;BME280;42700;42.524;12.052;2023-04-23T06:07:33;127761.25;;;15.79;100.00
56198;BME280;42700;42.524;12.052;2023-04-23T06:09:58;127230.78;;;15.90;100.00
56198;BME280;42700;42.524;12.052;2023-04-23T06:12:24;126488.97;;;15.95;100.00
56198;BME280;42700;42.524;12.052;2023-04-23T06:14:51;125794.16;;;15.98;100.00
56198;BME280;42700;42.524;12.052;2023-04-23T06:17:16;125547.13;;;16.11;100.00
56198;BME280;42700;42.524;12.052;2023-04-23T06:19:42;125361.13;;;16.29;100.00
56198;BME280;42700;42.524;12.052;2023-04-23T06:22:07;124777.84;;;16.39;100.00
56198;BME280;42700;42.524;12.052;2023-04-23T06:24:33;124162.31;;;16.54;100.00
56198;BME280;42700;42.524;12.052;2023-04-23T06:26:59;123789.03;;;16.73;100.00
56198;BME280;42700;42.524;12.052;2023-04-23T06:29:26;123621.25;;;17.05;100.00
56198;BME280;42700;42.524;12.052;2023-04-23T06:31:53;123153.03;;;17.36;100.00
56198;BME280;42700;42.524;12.052;2023-04-23T06:34:19;122247.84;;;17.56;100.00
56198;BME280;42700;42.524;12.052;2023-04-23T06:36:44;121123.78;;;17.61;100.00
56198;BME280;42700;42.524;12.052;2023-04-23T06:39:10;120495.53;;;17.82;100.00
56198;BME280;42700;42.524;12.052;2023-04-23T06:41:36;119551.97;;;17.85;100.00
56198;BME280;42700;42.524;12.052;2023-04-23T06:44:02;119250.78;;;18.15;100.00
56198;BME280;42700;42.524;12.052;2023-04-23T06:46:27;118288.13;;;18.24;100.00
56198;BME280;42700;42.524;12.052;2023-04-23T06:48:53;117666.56;;;18.44;100.00
56198;BME280;42700;42.524;12.052;2023-04-23T06:51:18;117122.75;;;18.68;100.00
56198;BME280;42700;42.524;12.052;2023-04-23T06:53:44;115910.78;;;18.70;100.00
56198;BME280;42700;42.524;12.052;2023-04-23T06:56:09;114802.91;;;18.74;100.00
56198;BME280;42700;42.524;12.052;2023-04-23T06:58:35;112835.53;;;18.47;100.00
56198;BME280;42700;42.524;12.052;2023-04-23T07:01:00;112278.66;;;18.56;100.00
56198;BME280;42700;42.524;12.052;2023-04-23T07:03:29;111400.69;;;18.54;100.00
56198;BME280;42700;42.524;12.052;2023-04-23T07:05:56;110760.66;;;18.58;100.00
56198;BME280;42700;42.524;12.052;2023-04-23T07:08:21;110230.41;;;18.63;100.00
56198;BME280;42700;42.524;12.052;2023-04-23T07:10:47;110169.53;;;18.88;100.00
56198;BME280;42700;42.524;12.052;2023-04-23T07:13:13;109467.19;;;18.91;100.00
56198;BME280;42700;42.524;12.052;2023-04-23T07:15:38;108574.97;;;18.85;100.00
56198;BME280;42700;42.524;12.052;2023-04-23T07:18:04;108077.88;;;18.92;100.00
56198;BME280;42700;42.524;12.052;2023-04-23T07:20:30;107737.19;;;19.03;100.00
56198;BME280;42700;42.524;12.052;2023-04-23T07:22:56;107663.56;;;19.19;100.00
56198;BME280;42700;42.524;12.052;2023-04-23T07:25:22;106897.38;;;19.13;100.00
56198;BME280;42700;42.524;12.052;2023-04-23T07:27:48;107043.88;;;19.38;100.00
56198;BME280;42700;42.524;12.052;2023-04-23T07:30:14;106701.06;;;19.46;100.00
56198;BME280;42700;42.524;12.052;2023-04-23T07:32:40;106215.22;;;19.52;100.00
56198;BME280;42700;42.524;12.052;2023-04-23T07:35:06;105255.84;;;19.43;100.00
56198;BME280;42700;42.524;12.052;2023-04-23T07:37:31;105413.41;;;19.64;100.00
56198;BME280;42700;42.524;12.052;2023-04-23T07:39:57;105282.44;;;19.81;100.00
56198;BME280;42700;42.524;12.052;2023-04-23T07:42:22;104932.97;;;19.91;100.00
56198;BME280;42700;42.524;12.052;2023-04-23T07:44:48;103855.13;;;19.76;100.00
56198;BME280;42700;42.524;12.052;2023-04-23T07:47:13;103341.63;;;19.76;100.00
56198;BME280;42700;42.524;12.052;2023-04-23T07:49:39;102911.56;;;19.80;100.00
56198;BME280;42700;42.524;12.052;2023-04-23T07:52:04;102339.94;;;19.77;100.00
56198;BME280;42700;42.524;12.052;2023-04-23T07:54:30;101466.59;;;19.62;100.00
56198;BME280;42700;42.524;12.052;2023-04-23T07:56:55;101215.59;;;19.65;100.00
56198;BME280;42700;42.524;12.052;2023-04-23T07:59:21;102348.97;;;20.09;100.00
56198;BME280;42700;42.524;12.052;2023-04-23T08:01:47;102149.50;;;20.18;100.00
56198;BME280;42700;42.524;12.052;2023-04-23T08:04:12;102815.28;;;20.53;100.00
56198;BME280;42700;42.524;12.052;2023-04-23T08:06:38;103198.66;;;20.80;100.00
56198;BME280;42700;42.524;12.052;2023-04-23T08:09:03;104015.78;;;21.24;100.00
56198;BME280;42700;42.524;12.052;2023-04-23T08:11:31;104281.41;;;21.61;100.00
56198;BME280;42700;42.524;12.052;2023-04-23T08:13:56;103832.31;;;21.73;100.00
56198;BME280;42700;42.524;12.052;2023-04-23T08:16:22;103857.31;;;22.04;100.00
56198;BME280;42700;42.524;12.052;2023-04-23T08:18:47;103128.41;;;22.12;100.00
56198;BME280;42700;42.524;12.052;2023-04-23T08:21:12;101784.69;;;21.95;100.00
56198;BME280;42700;42.524;12.052;2023-04-23T08:23:38;101490.34;;;22.07;100.00
56198;BME280;42700;42.524;12.052;2023-04-23T08:26:04;100925.09;;;22.12;100.00
56198;BME280;42700;42.524;12.052;2023-04-23T08:28:29;100556.00;;;22.21;100.00
56198;BME280;42700;42.524;12.052;2023-04-23T08:30:55;100841.38;;;22.50;100.00
56198;BME280;42700;42.524;12.052;2023-04-23T08:33:20;100960.72;;;22.80;100.00
56198;BME280;42700;42.524;12.052;2023-04-23T08:35:46;101031.75;;;23.07;100.00
56198;BME280;42700;42.524;12.052;2023-04-23T08:38:12;100292.19;;;23.12;100.00
56198;BME280;42700;42.524;12.052;2023-04-23T08:40:37;98856.25;;;22.93;100.00
56198;BME280;42700;42.524;12.052;2023-04-23T08:43:25;98611.13;;;23.02;100.00
56198;BME280;42700;42.524;12.052;2023-04-23T08:45:53;100362.31;;;23.71;100.00
56198;BME280;42700;42.524;12.052;2023-04-23T08:48:19;99794.44;;;23.86;100.00
56198;BME280;42700;42.524;12.052;2023-04-23T08:50:45;99051.38;;;23.91;100.00
56198;BME280;42700;42.524;12.052;2023-04-23T08:53:11;99058.53;;;24.16;100.00
56198;BME280;42700;42.524;12.052;2023-04-23T08:55:39;98683.00;;;24.28;100.00
56198;BME280;42700;42.524;12.052;2023-04-23T08:58:05;97968.84;;;24.31;100.00
56198;BME280;42700;42.524;12.052;2023-04-23T09:00:31;96829.81;;;24.20;100.00
56198;BME280;42700;42.524;12.052;2023-04-23T09:02:57;96295.03;;;24.18;100.00
56198;BME280;42700;42.524;12.052;2023-04-23T09:05:25;95668.22;;;24.16;100.00
56198;BME280;42700;42.524;12.052;2023-04-23T09:07:52;94655.72;;;23.97;100.00
56198;BME280;42700;42.524;12.052;2023-04-23T09:10:18;94607.16;;;24.04;100.00
56198;BME280;42700;42.524;12.052;2023-04-23T09:12:44;93420.38;;;23.77;100.00
56198;BME280;42700;42.524;12.052;2023-04-23T09:15:10;92033.19;;;23.43;100.00
56198;BME280;42700;42.524;12.052;2023-04-23T09:17:37;93729.00;;;23.90;100.00
56198;BME280;42700;42.524;12.052;2023-04-23T09:20:03;94568.19;;;24.21;100.00
56198;BME280;42700;42.524;12.052;2023-04-23T09:22:37;95280.91;;;24.53;100.00
56198;BME280;42700;42.524;12.052;2023-04-23T09:25:03;95778.38;;;24.74;100.00
56198;BME280;42700;42.524;12.052;2023-04-23T09:27:29;96077.03;;;24.92;100.00
56198;BME280;42700;42.524;12.052;2023-04-23T09:29:55;96671.19;;;25.17;100.00
56198;BME280;42700;42.524;12.052;2023-04-23T09:32:29;97785.00;;;25.58;100.00
56198;BME280;42700;42.524;12.052;2023-04-23T09:34:55;98003.38;;;25.79;100.00
56198;BME280;42700;42.524;12.052;2023-04-23T09:37:24;98440.16;;;26.08;100.00
56198;BME280;42700;42.524;12.052;2023-04-23T09:39:49;96682.88;;;25.84;100.00
56198;BME280;42700;42.524;12.052;2023-04-23T09:42:19;98314.16;;;26.50;100.00
56198;BME280;42700;42.524;12.052;2023-04-23T09:44:54;98698.59;;;27.01;100.00
56198;BME280;42700;42.524;12.052;2023-04-23T09:47:20;96790.97;;;26.94;100.00
56198;BME280;42700;42.524;12.052;2023-04-23T09:49:46;96143.94;;;27.11;100.00
56198;BME280;42700;42.524;12.052;2023-04-23T09:52:12;93972.63;;;26.92;100.00
56198;BME280;42700;42.524;12.052;2023-04-23T09:54:37;92661.00;;;26.92;100.00
56198;BME280;42700;42.524;12.052;2023-04-23T09:57:03;91746.75;;;26.99;100.00
56198;BME280;42700;42.524;12.052;2023-04-23T09:59:32;91637.31;;;27.24;100.00
56198;BME280;42700;42.524;12.052;2023-04-23T10:02:04;91091.50;;;27.36;99.91
56198;BME280;42700;42.524;12.052;2023-04-23T10:04:30;91046.31;;;27.61;98.53
56198;BME280;42700;42.524;12.052;2023-04-23T10:06:57;90332.97;;;27.70;96.72
56198;BME280;42700;42.524;12.052;2023-04-23T10:09:23;89489.09;;;27.70;94.55
56198;BME280;42700;42.524;12.052;2023-04-23T10:11:53;88193.84;;;27.59;93.29
56198;BME280;42700;42.524;12.052;2023-04-23T10:14:23;87526.09;;;27.60;91.01
56198;BME280;42700;42.524;12.052;2023-04-23T10:16:49;88077.59;;;27.92;93.55
56198;BME280;42700;42.524;12.052;2023-04-23T10:19:16;88677.28;;;28.23;92.86
56198;BME280;42700;42.524;12.052;2023-04-23T10:21:42;87881.25;;;28.28;91.48
56198;BME280;42700;42.524;12.052;2023-04-23T10:24:09;87062.00;;;28.40;90.25
56198;BME280;42700;42.524;12.052;2023-04-23T10:26:37;86100.06;;;28.57;89.50
56198;BME280;42700;42.524;12.052;2023-04-23T10:29:04;85377.38;;;28.83;87.84
56198;BME280;42700;42.524;12.052;2023-04-23T10:31:32;84497.75;;;29.15;87.14
56198;BME280;42700;42.524;12.052;2023-04-23T10:33:58;83622.97;;;29.49;85.20
56198;BME280;42700;42.524;12.052;2023-04-23T10:36:26;81400.97;;;29.50;83.37
56198;BME280;42700;42.524;12.052;2023-04-23T10:38:52;78816.69;;;29.35;81.14
56198;BME280;42700;42.524;12.052;2023-04-23T10:41:21;77748.44;;;29.49;79.94
56198;BME280;42700;42.524;12.052;2023-04-23T10:43:48;76330.97;;;29.47;78.98
56198;BME280;42700;42.524;12.052;2023-04-23T10:46:33;74404.47;;;29.31;77.35
56198;BME280;42700;42.524;12.052;2023-04-23T10:49:05;76657.34;;;30.02;79.67
56198;BME280;42700;42.524;12.052;2023-04-23T10:51:34;77717.03;;;30.41;78.99
56198;BME280;42700;42.524;12.052;2023-04-23T10:54:01;79379.09;;;30.95;78.56
56198;BME280;42700;42.524;12.052;2023-04-23T10:56:27;79078.50;;;31.05;77.74
56198;BME280;42700;42.524;12.052;2023-04-23T10:58:52;76116.13;;;30.57;77.18
56198;BME280;42700;42.524;12.052;2023-04-23T11:01:18;72518.69;;;29.81;78.15
56198;BME280;42700;42.524;12.052;2023-04-23T11:03:46;74703.44;;;30.20;77.34
56198;BME280;42700;42.524;12.052;2023-04-23T11:06:12;75807.53;;;30.50;77.05
56198;BME280;42700;42.524;12.052;2023-04-23T11:08:49;71393.25;;;29.63;78.22
56198;BME280;42700;42.524;12.052;2023-04-23T11:11:22;67240.09;;;28.67;78.74
56198;BME280;42700;42.524;12.052;2023-04-23T11:13:52;63732.28;;;27.77;79.23
56198;BME280;42700;42.524;12.052;2023-04-23T11:16:21;64887.91;;;27.75;80.00
56198;BME280;42700;42.524;12.052;2023-04-23T11:18:54;69256.31;;;28.44;81.17
56198;BME280;42700;42.524;12.052;2023-04-23T11:21:20;70773.09;;;28.64;77.49
56198;BME280;42700;42.524;12.052;2023-04-23T11:23:45;73021.00;;;29.10;79.25
56198;BME280;42700;42.524;12.052;2023-04-23T11:26:13;76598.88;;;29.83;80.81
56198;BME280;42700;42.524;12.052;2023-04-23T11:28:39;78761.59;;;30.26;81.18
56198;BME280;42700;42.524;12.052;2023-04-23T11:31:08;78898.91;;;30.33;79.46
56198;BME280;42700;42.524;12.052;2023-04-23T11:33:33;72724.75;;;29.21;79.61
56198;BME280;42700;42.524;12.052;2023-04-23T11:36:01;72734.38;;;29.20;78.46
56198;BME280;42700;42.524;12.052;2023-04-23T11:38:30;72935.56;;;29.30;78.20
56198;BME280;42700;42.524;12.052;2023-04-23T11:41:00;71690.06;;;29.10;78.85
56198;BME280;42700;42.524;12.052;2023-04-23T11:43:26;75307.16;;;29.86;78.06
56198;BME280;42700;42.524;12.052;2023-04-23T11:45:53;76289.47;;;30.21;75.91
56198;BME280;42700;42.524;12.052;2023-04-23T11:48:19;77917.34;;;30.74;75.04
56198;BME280;42700;42.524;12.052;2023-04-23T11:50:45;74524.56;;;30.25;71.77
56198;BME280;42700;42.524;12.052;2023-04-23T11:53:10;77963.69;;;31.08;74.39
56198;BME280;42700;42.524;12.052;2023-04-23T11:55:37;77669.03;;;31.08;70.02
56198;BME280;42700;42.524;12.052;2023-04-23T11:58:02;75201.50;;;30.76;70.73
56198;BME280;42700;42.524;12.052;2023-04-23T12:00:28;79895.00;;;31.75;73.44
56198;BME280;42700;42.524;12.052;2023-04-23T12:02:54;79150.72;;;31.70;70.40
56198;BME280;42700;42.524;12.052;2023-04-23T12:05:21;81193.66;;;32.32;68.79
56198;BME280;42700;42.524;12.052;2023-04-23T12:07:47;78750.72;;;32.06;65.44
56198;BME280;42700;42.524;12.052;2023-04-23T12:10:16;78240.13;;;32.10;65.43
56198;BME280;42700;42.524;12.052;2023-04-23T12:12:42;76792.09;;;31.93;64.03
56198;BME280;42700;42.524;12.052;2023-04-23T12:15:07;77166.13;;;32.12;61.98
56198;BME280;42700;42.524;12.052;2023-04-23T12:17:33;76589.34;;;32.16;60.93
56198;BME280;42700;42.524;12.052;2023-04-23T12:19:58;74795.16;;;31.90;59.79
56198;BME280;42700;42.524;12.052;2023-04-23T12:22:27;72549.00;;;31.55;58.09
56198;BME280;42700;42.524;12.052;2023-04-23T12:24:53;73725.47;;;31.83;58.37
56198;BME280;42700;42.524;12.052;2023-04-23T12:27:19;72017.06;;;31.48;58.26
56198;BME280;42700;42.524;12.052;2023-04-23T12:29:46;72729.63;;;31.69;56.02